sensor_id;sensor_type;location;lat;lon;timestamp;P1;durP1;ratioP1;P2;durP2;ratioP2
13222;SDS011;6676;45.192;5.722;2023-07-02T00:05:57;4.58;;;3.42;;
13222;SDS011;6676;45.192;5.722;2023-07-02T00:08:48;3.75;;;3.17;;
13222;SDS011;6676;45.192;5.722;2023-07-02T00:11:40;6.30;;;3.37;;
13222;SDS011;6676;45.192;5.722;2023-07-02T00:14:21;5.95;;;2.80;;
13222;SDS011;6676;45.192;5.722;2023-07-02T00:17:12;3.10;;;2.70;;
13222;SDS011;6676;45.192;5.722;2023-07-02T00:19:51;3.02;;;2.70;;
13222;SDS011;6676;45.192;5.722;2023-07-02T00:25:22;4.03;;;3.22;;
13222;SDS011;6676;45.192;5.722;2023-07-02T00:28:15;3.02;;;2.67;;
13222;SDS011;6676;45.192;5.722;2023-07-02T00:31:08;2.98;;;2.30;;
13222;SDS011;6676;45.192;5.722;2023-07-02T00:33:59;6.17;;;2.72;;
13222;SDS011;6676;45.192;5.722;2023-07-02T00:36:40;2.25;;;2.05;;
13222;SDS011;6676;45.192;5.722;2023-07-02T00:39:31;2.50;;;2.30;;
13222;SDS011;6676;45.192;5.722;2023-07-02T00:42:23;3.00;;;2.47;;
13222;SDS011;6676;45.192;5.722;2023-07-02T00:45:16;5.17;;;4.67;;
13222;SDS011;6676;45.192;5.722;2023-07-02T00:48:05;6.92;;;5.15;;
13222;SDS011;6676;45.192;5.722;2023-07-02T00:50:57;7.75;;;5.78;;
13222;SDS011;6676;45.192;5.722;2023-07-02T00:53:50;7.40;;;5.90;;
13222;SDS011;6676;45.192;5.722;2023-07-02T00:56:44;6.05;;;5.45;;
13222;SDS011;6676;45.192;5.722;2023-07-02T00:59:35;6.17;;;5.50;;
13222;SDS011;6676;45.192;5.722;2023-07-02T01:02:16;6.05;;;5.45;;
13222;SDS011;6676;45.192;5.722;2023-07-02T01:05:07;6.83;;;5.67;;
13222;SDS011;6676;45.192;5.722;2023-07-02T01:07:59;5.65;;;5.05;;
13222;SDS011;6676;45.192;5.722;2023-07-02T01:13:29;6.78;;;6.08;;
13222;SDS011;6676;45.192;5.722;2023-07-02T01:16:20;6.95;;;5.80;;
13222;SDS011;6676;45.192;5.722;2023-07-02T01:19:18;6.78;;;6.00;;
13222;SDS011;6676;45.192;5.722;2023-07-02T01:22:10;6.80;;;5.62;;
13222;SDS011;6676;45.192;5.722;2023-07-02T01:25:05;6.95;;;5.80;;
13222;SDS011;6676;45.192;5.722;2023-07-02T01:27:58;5.87;;;5.28;;
13222;SDS011;6676;45.192;5.722;2023-07-02T01:30:50;4.90;;;3.95;;
13222;SDS011;6676;45.192;5.722;2023-07-02T01:33:42;3.98;;;3.58;;
13222;SDS011;6676;45.192;5.722;2023-07-02T01:36:21;4.50;;;3.83;;
13222;SDS011;6676;45.192;5.722;2023-07-02T01:39:12;4.50;;;3.40;;
13222;SDS011;6676;45.192;5.722;2023-07-02T01:42:08;3.70;;;3.30;;
13222;SDS011;6676;45.192;5.722;2023-07-02T01:45:00;3.67;;;3.37;;
13222;SDS011;6676;45.192;5.722;2023-07-02T01:47:51;3.35;;;3.02;;
13222;SDS011;6676;45.192;5.722;2023-07-02T01:50:43;4.00;;;3.45;;
13222;SDS011;6676;45.192;5.722;2023-07-02T01:53:36;3.55;;;2.92;;
13222;SDS011;6676;45.192;5.722;2023-07-02T01:56:29;4.30;;;3.20;;
13222;SDS011;6676;45.192;5.722;2023-07-02T01:59:21;4.83;;;4.30;;
13222;SDS011;6676;45.192;5.722;2023-07-02T02:04:54;3.50;;;3.20;;
13222;SDS011;6676;45.192;5.722;2023-07-02T02:07:45;3.95;;;2.87;;
13222;SDS011;6676;45.192;5.722;2023-07-02T02:10:37;5.30;;;3.92;;
13222;SDS011;6676;45.192;5.722;2023-07-02T02:13:29;5.08;;;4.50;;
13222;SDS011;6676;45.192;5.722;2023-07-02T02:16:08;5.37;;;4.70;;
13222;SDS011;6676;45.192;5.722;2023-07-02T02:19:00;4.75;;;4.10;;
13222;SDS011;6676;45.192;5.722;2023-07-02T02:21:52;5.25;;;4.75;;
13222;SDS011;6676;45.192;5.722;2023-07-02T02:27:23;6.53;;;4.72;;
13222;SDS011;6676;45.192;5.722;2023-07-02T02:32:54;6.70;;;4.95;;
13222;SDS011;6676;45.192;5.722;2023-07-02T02:38:26;6.15;;;5.42;;
13222;SDS011;6676;45.192;5.722;2023-07-02T02:41:17;5.90;;;5.35;;
13222;SDS011;6676;45.192;5.722;2023-07-02T02:44:10;6.50;;;5.85;;
13222;SDS011;6676;45.192;5.722;2023-07-02T02:47:02;5.40;;;4.90;;
13222;SDS011;6676;45.192;5.722;2023-07-02T02:49:55;5.97;;;5.37;;
13222;SDS011;6676;45.192;5.722;2023-07-02T02:55:25;7.65;;;5.67;;
13222;SDS011;6676;45.192;5.722;2023-07-02T03:00:56;7.12;;;5.90;;
13222;SDS011;6676;45.192;5.722;2023-07-02T03:03:47;7.12;;;6.42;;
13222;SDS011;6676;45.192;5.722;2023-07-02T03:06:40;8.73;;;7.30;;
13222;SDS011;6676;45.192;5.722;2023-07-02T03:09:31;7.45;;;6.65;;
13222;SDS011;6676;45.192;5.722;2023-07-02T03:12:11;7.92;;;6.17;;
13222;SDS011;6676;45.192;5.722;2023-07-02T03:15:03;8.53;;;6.17;;
13222;SDS011;6676;45.192;5.722;2023-07-02T03:17:55;7.12;;;6.42;;
13222;SDS011;6676;45.192;5.722;2023-07-02T03:20:47;7.92;;;7.12;;
13222;SDS011;6676;45.192;5.722;2023-07-02T03:23:39;9.03;;;7.60;;
13222;SDS011;6676;45.192;5.722;2023-07-02T03:26:30;9.03;;;7.53;;
13222;SDS011;6676;45.192;5.722;2023-07-02T03:29:11;8.40;;;7.60;;
13222;SDS011;6676;45.192;5.722;2023-07-02T03:32:03;9.15;;;7.83;;
13222;SDS011;6676;45.192;5.722;2023-07-02T03:34:56;8.53;;;7.05;;
13222;SDS011;6676;45.192;5.722;2023-07-02T03:37:47;9.05;;;7.47;;
13222;SDS011;6676;45.192;5.722;2023-07-02T03:40:28;10.05;;;7.70;;
13222;SDS011;6676;45.192;5.722;2023-07-02T03:43:19;8.95;;;7.87;;
13222;SDS011;6676;45.192;5.722;2023-07-02T03:46:11;9.25;;;7.55;;
13222;SDS011;6676;45.192;5.722;2023-07-02T03:49:03;9.00;;;7.67;;
13222;SDS011;6676;45.192;5.722;2023-07-02T03:51:44;8.50;;;7.08;;
13222;SDS011;6676;45.192;5.722;2023-07-02T03:54:35;10.10;;;8.23;;
13222;SDS011;6676;45.192;5.722;2023-07-02T03:57:26;8.03;;;7.22;;
13222;SDS011;6676;45.192;5.722;2023-07-02T04:00:19;10.38;;;7.47;;
13222;SDS011;6676;45.192;5.722;2023-07-02T04:03:11;12.33;;;8.15;;
13222;SDS011;6676;45.192;5.722;2023-07-02T04:06:03;8.00;;;7.20;;
13222;SDS011;6676;45.192;5.722;2023-07-02T04:08:54;10.90;;;7.92;;
13222;SDS011;6676;45.192;5.722;2023-07-02T04:11:46;10.10;;;7.65;;
13222;SDS011;6676;45.192;5.722;2023-07-02T04:14:27;9.38;;;7.60;;
13222;SDS011;6676;45.192;5.722;2023-07-02T04:17:18;9.00;;;8.08;;
13222;SDS011;6676;45.192;5.722;2023-07-02T04:20:11;8.55;;;7.62;;
13222;SDS011;6676;45.192;5.722;2023-07-02T04:22:51;10.30;;;7.62;;
13222;SDS011;6676;45.192;5.722;2023-07-02T04:28:21;9.00;;;8.10;;
13222;SDS011;6676;45.192;5.722;2023-07-02T04:31:13;9.35;;;7.72;;
13222;SDS011;6676;45.192;5.722;2023-07-02T04:33:54;9.68;;;8.43;;
13222;SDS011;6676;45.192;5.722;2023-07-02T04:36:48;8.90;;;8.00;;
13222;SDS011;6676;45.192;5.722;2023-07-02T04:39:41;9.28;;;8.15;;
13222;SDS011;6676;45.192;5.722;2023-07-02T04:42:33;10.80;;;7.87;;
13222;SDS011;6676;45.192;5.722;2023-07-02T04:45:26;8.95;;;7.78;;
13222;SDS011;6676;45.192;5.722;2023-07-02T04:48:19;9.13;;;7.70;;
13222;SDS011;6676;45.192;5.722;2023-07-02T04:51:11;13.22;;;8.68;;
13222;SDS011;6676;45.192;5.722;2023-07-02T04:56:42;8.90;;;8.00;;
13222;SDS011;6676;45.192;5.722;2023-07-02T04:59:33;9.33;;;7.30;;
13222;SDS011;6676;45.192;5.722;2023-07-02T05:02:25;9.75;;;7.62;;
13222;SDS011;6676;45.192;5.722;2023-07-02T05:05:17;11.50;;;7.33;;
13222;SDS011;6676;45.192;5.722;2023-07-02T05:08:08;8.63;;;6.37;;
13222;SDS011;6676;45.192;5.722;2023-07-02T05:10:49;5.55;;;5.05;;
13222;SDS011;6676;45.192;5.722;2023-07-02T05:13:40;6.90;;;5.08;;
13222;SDS011;6676;45.192;5.722;2023-07-02T05:16:32;8.75;;;5.12;;
13222;SDS011;6676;45.192;5.722;2023-07-02T05:19:23;7.05;;;4.65;;
13222;SDS011;6676;45.192;5.722;2023-07-02T05:22:05;6.05;;;4.42;;
13222;SDS011;6676;45.192;5.722;2023-07-02T05:24:56;5.35;;;4.35;;
13222;SDS011;6676;45.192;5.722;2023-07-02T05:27:48;5.22;;;4.20;;
13222;SDS011;6676;45.192;5.722;2023-07-02T05:33:22;10.13;;;5.70;;
13222;SDS011;6676;45.192;5.722;2023-07-02T05:36:14;5.15;;;4.47;;
13222;SDS011;6676;45.192;5.722;2023-07-02T05:39:05;4.40;;;4.00;;
13222;SDS011;6676;45.192;5.722;2023-07-02T05:41:46;3.72;;;3.35;;
13222;SDS011;6676;45.192;5.722;2023-07-02T05:44:37;4.00;;;3.60;;
13222;SDS011;6676;45.192;5.722;2023-07-02T05:50:08;4.55;;;3.30;;
13222;SDS011;6676;45.192;5.722;2023-07-02T05:52:59;3.60;;;3.20;;
13222;SDS011;6676;45.192;5.722;2023-07-02T05:55:51;4.92;;;3.15;;
13222;SDS011;6676;45.192;5.722;2023-07-02T05:58:42;5.83;;;3.15;;
13222;SDS011;6676;45.192;5.722;2023-07-02T06:01:23;5.25;;;3.15;;
13222;SDS011;6676;45.192;5.722;2023-07-02T06:06:53;3.58;;;3.08;;
13222;SDS011;6676;45.192;5.722;2023-07-02T06:09:46;3.85;;;2.77;;
13222;SDS011;6676;45.192;5.722;2023-07-02T06:12:26;3.15;;;2.70;;
13222;SDS011;6676;45.192;5.722;2023-07-02T06:15:17;3.30;;;2.90;;
13222;SDS011;6676;45.192;5.722;2023-07-02T06:17:58;3.45;;;2.55;;
13222;SDS011;6676;45.192;5.722;2023-07-02T06:20:50;3.27;;;2.60;;
13222;SDS011;6676;45.192;5.722;2023-07-02T06:23:42;3.10;;;2.80;;
13222;SDS011;6676;45.192;5.722;2023-07-02T06:26:33;4.58;;;2.80;;
13222;SDS011;6676;45.192;5.722;2023-07-02T06:29:21;3.40;;;2.62;;
13222;SDS011;6676;45.192;5.722;2023-07-02T06:32:13;2.40;;;2.20;;
13222;SDS011;6676;45.192;5.722;2023-07-02T06:35:05;3.67;;;2.45;;
13222;SDS011;6676;45.192;5.722;2023-07-02T06:37:57;4.30;;;2.55;;
13222;SDS011;6676;45.192;5.722;2023-07-02T06:40:48;3.35;;;2.70;;
13222;SDS011;6676;45.192;5.722;2023-07-02T06:43:42;3.35;;;2.55;;
13222;SDS011;6676;45.192;5.722;2023-07-02T06:46:22;4.53;;;2.60;;
13222;SDS011;6676;45.192;5.722;2023-07-02T06:49:13;2.92;;;2.62;;
13222;SDS011;6676;45.192;5.722;2023-07-02T06:52:05;3.37;;;2.67;;
13222;SDS011;6676;45.192;5.722;2023-07-02T06:54:49;2.90;;;2.60;;
13222;SDS011;6676;45.192;5.722;2023-07-02T06:57:44;2.60;;;2.40;;
13222;SDS011;6676;45.192;5.722;2023-07-02T07:00:35;2.83;;;2.62;;
13222;SDS011;6676;45.192;5.722;2023-07-02T07:03:27;2.87;;;2.50;;
13222;SDS011;6676;45.192;5.722;2023-07-02T07:06:19;3.58;;;2.90;;
13222;SDS011;6676;45.192;5.722;2023-07-02T07:09:10;3.22;;;2.87;;
13222;SDS011;6676;45.192;5.722;2023-07-02T07:12:02;3.42;;;2.75;;
13222;SDS011;6676;45.192;5.722;2023-07-02T07:14:55;5.58;;;4.53;;
13222;SDS011;6676;45.192;5.722;2023-07-02T07:17:46;7.05;;;3.05;;
13222;SDS011;6676;45.192;5.722;2023-07-02T07:20:39;3.02;;;2.72;;
13222;SDS011;6676;45.192;5.722;2023-07-02T07:23:31;4.50;;;2.90;;
13222;SDS011;6676;45.192;5.722;2023-07-02T07:26:23;3.00;;;2.70;;
13222;SDS011;6676;45.192;5.722;2023-07-02T07:29:14;3.42;;;2.90;;
13222;SDS011;6676;45.192;5.722;2023-07-02T07:32:07;3.55;;;3.25;;
13222;SDS011;6676;45.192;5.722;2023-07-02T07:34:58;3.87;;;3.30;;
13222;SDS011;6676;45.192;5.722;2023-07-02T07:37:50;7.92;;;6.75;;
13222;SDS011;6676;45.192;5.722;2023-07-02T07:40:41;6.42;;;5.37;;
13222;SDS011;6676;45.192;5.722;2023-07-02T07:43:34;12.45;;;10.68;;
13222;SDS011;6676;45.192;5.722;2023-07-02T07:46:25;13.75;;;10.15;;
13222;SDS011;6676;45.192;5.722;2023-07-02T07:49:05;11.53;;;10.32;;
13222;SDS011;6676;45.192;5.722;2023-07-02T07:51:57;12.88;;;9.78;;
13222;SDS011;6676;45.192;5.722;2023-07-02T07:54:48;11.08;;;9.48;;
13222;SDS011;6676;45.192;5.722;2023-07-02T07:57:41;15.15;;;10.50;;
13222;SDS011;6676;45.192;5.722;2023-07-02T08:00:32;11.85;;;10.63;;
13222;SDS011;6676;45.192;5.722;2023-07-02T08:03:24;11.45;;;9.18;;
13222;SDS011;6676;45.192;5.722;2023-07-02T08:06:19;11.30;;;9.50;;
13222;SDS011;6676;45.192;5.722;2023-07-02T08:09:12;13.93;;;10.40;;
13222;SDS011;6676;45.192;5.722;2023-07-02T08:12:19;11.73;;;9.63;;
13222;SDS011;6676;45.192;5.722;2023-07-02T08:15:13;11.95;;;9.88;;
13222;SDS011;6676;45.192;5.722;2023-07-02T08:18:04;12.50;;;10.03;;
13222;SDS011;6676;45.192;5.722;2023-07-02T08:21:00;12.30;;;9.93;;
13222;SDS011;6676;45.192;5.722;2023-07-02T08:23:52;12.55;;;9.78;;
13222;SDS011;6676;45.192;5.722;2023-07-02T08:26:43;12.80;;;9.45;;
13222;SDS011;6676;45.192;5.722;2023-07-02T08:29:39;10.15;;;8.40;;
13222;SDS011;6676;45.192;5.722;2023-07-02T08:32:36;12.90;;;10.23;;
13222;SDS011;6676;45.192;5.722;2023-07-02T08:35:37;13.98;;;9.78;;
13222;SDS011;6676;45.192;5.722;2023-07-02T08:38:31;12.90;;;9.90;;
13222;SDS011;6676;45.192;5.722;2023-07-02T08:41:29;13.08;;;10.45;;
13222;SDS011;6676;45.192;5.722;2023-07-02T08:44:24;12.30;;;10.35;;
13222;SDS011;6676;45.192;5.722;2023-07-02T08:47:17;13.95;;;10.50;;
13222;SDS011;6676;45.192;5.722;2023-07-02T08:50:09;13.10;;;10.38;;
13222;SDS011;6676;45.192;5.722;2023-07-02T08:53:01;11.33;;;8.85;;
13222;SDS011;6676;45.192;5.722;2023-07-02T08:55:57;11.10;;;8.80;;
13222;SDS011;6676;45.192;5.722;2023-07-02T08:58:51;13.58;;;10.60;;
13222;SDS011;6676;45.192;5.722;2023-07-02T09:01:47;12.93;;;10.60;;
13222;SDS011;6676;45.192;5.722;2023-07-02T09:04:39;12.93;;;10.55;;
13222;SDS011;6676;45.192;5.722;2023-07-02T09:07:30;12.90;;;10.50;;
13222;SDS011;6676;45.192;5.722;2023-07-02T09:10:28;13.48;;;10.38;;
13222;SDS011;6676;45.192;5.722;2023-07-02T09:13:21;12.68;;;10.38;;
13222;SDS011;6676;45.192;5.722;2023-07-02T09:16:24;12.88;;;10.15;;
13222;SDS011;6676;45.192;5.722;2023-07-02T09:19:04;12.60;;;10.05;;
13222;SDS011;6676;45.192;5.722;2023-07-02T09:21:59;13.48;;;10.48;;
13222;SDS011;6676;45.192;5.722;2023-07-02T09:27:55;14.03;;;9.75;;
13222;SDS011;6676;45.192;5.722;2023-07-02T09:30:34;12.53;;;10.15;;
13222;SDS011;6676;45.192;5.722;2023-07-02T09:33:31;12.47;;;9.93;;
13222;SDS011;6676;45.192;5.722;2023-07-02T09:36:23;11.35;;;9.63;;
13222;SDS011;6676;45.192;5.722;2023-07-02T09:39:18;12.15;;;10.35;;
13222;SDS011;6676;45.192;5.722;2023-07-02T09:42:10;13.43;;;10.88;;
13222;SDS011;6676;45.192;5.722;2023-07-02T09:45:06;13.68;;;10.25;;
13222;SDS011;6676;45.192;5.722;2023-07-02T09:48:03;12.45;;;10.23;;
13222;SDS011;6676;45.192;5.722;2023-07-02T09:51:03;15.30;;;11.12;;
13222;SDS011;6676;45.192;5.722;2023-07-02T09:53:55;13.93;;;10.63;;
13222;SDS011;6676;45.192;5.722;2023-07-02T09:56:49;12.70;;;10.60;;
13222;SDS011;6676;45.192;5.722;2023-07-02T09:59:42;12.15;;;10.23;;
13222;SDS011;6676;45.192;5.722;2023-07-02T10:02:34;12.70;;;10.45;;
13222;SDS011;6676;45.192;5.722;2023-07-02T10:05:26;13.25;;;10.48;;
13222;SDS011;6676;45.192;5.722;2023-07-02T10:08:19;12.88;;;9.95;;
13222;SDS011;6676;45.192;5.722;2023-07-02T10:11:11;14.18;;;10.65;;
13222;SDS011;6676;45.192;5.722;2023-07-02T10:14:03;15.35;;;10.20;;
13222;SDS011;6676;45.192;5.722;2023-07-02T10:16:54;12.23;;;10.23;;
13222;SDS011;6676;45.192;5.722;2023-07-02T10:22:30;13.22;;;10.70;;
13222;SDS011;6676;45.192;5.722;2023-07-02T10:25:33;13.35;;;11.12;;
13222;SDS011;6676;45.192;5.722;2023-07-02T10:28:28;13.18;;;10.20;;
13222;SDS011;6676;45.192;5.722;2023-07-02T10:31:20;13.83;;;10.95;;
13222;SDS011;6676;45.192;5.722;2023-07-02T10:34:12;15.28;;;10.50;;
13222;SDS011;6676;45.192;5.722;2023-07-02T10:37:03;14.58;;;11.18;;
13222;SDS011;6676;45.192;5.722;2023-07-02T10:39:55;12.80;;;10.45;;
13222;SDS011;6676;45.192;5.722;2023-07-02T10:42:45;14.55;;;10.70;;
13222;SDS011;6676;45.192;5.722;2023-07-02T10:45:37;11.85;;;9.40;;
13222;SDS011;6676;45.192;5.722;2023-07-02T10:48:28;14.30;;;11.70;;
13222;SDS011;6676;45.192;5.722;2023-07-02T10:51:20;13.15;;;10.58;;
13222;SDS011;6676;45.192;5.722;2023-07-02T10:54:12;14.50;;;10.85;;
13222;SDS011;6676;45.192;5.722;2023-07-02T10:57:04;14.13;;;11.20;;
13222;SDS011;6676;45.192;5.722;2023-07-02T10:59:44;13.32;;;9.88;;
13222;SDS011;6676;45.192;5.722;2023-07-02T11:02:36;12.98;;;10.10;;
13222;SDS011;6676;45.192;5.722;2023-07-02T11:05:28;13.22;;;9.45;;
13222;SDS011;6676;45.192;5.722;2023-07-02T11:08:10;11.90;;;9.95;;
13222;SDS011;6676;45.192;5.722;2023-07-02T11:11:13;12.80;;;10.40;;
13222;SDS011;6676;45.192;5.722;2023-07-02T11:14:07;14.93;;;11.33;;
13222;SDS011;6676;45.192;5.722;2023-07-02T11:16:59;11.40;;;10.20;;
13222;SDS011;6676;45.192;5.722;2023-07-02T11:19:55;15.98;;;11.08;;
13222;SDS011;6676;45.192;5.722;2023-07-02T11:22:51;11.40;;;9.23;;
13222;SDS011;6676;45.192;5.722;2023-07-02T11:25:39;13.62;;;10.10;;
13222;SDS011;6676;45.192;5.722;2023-07-02T11:28:31;10.38;;;9.00;;
13222;SDS011;6676;45.192;5.722;2023-07-02T11:31:25;10.88;;;8.85;;
13222;SDS011;6676;45.192;5.722;2023-07-02T11:34:19;9.85;;;8.25;;
13222;SDS011;6676;45.192;5.722;2023-07-02T11:37:13;9.95;;;8.48;;
13222;SDS011;6676;45.192;5.722;2023-07-02T11:40:08;9.63;;;8.05;;
13222;SDS011;6676;45.192;5.722;2023-07-02T11:43:00;11.15;;;8.80;;
13222;SDS011;6676;45.192;5.722;2023-07-02T11:45:52;8.73;;;7.33;;
13222;SDS011;6676;45.192;5.722;2023-07-02T11:48:43;9.33;;;7.35;;
13222;SDS011;6676;45.192;5.722;2023-07-02T11:51:35;6.72;;;5.58;;
13222;SDS011;6676;45.192;5.722;2023-07-02T11:54:27;8.08;;;6.15;;
13222;SDS011;6676;45.192;5.722;2023-07-02T11:57:20;6.05;;;5.40;;
13222;SDS011;6676;45.192;5.722;2023-07-02T12:00:19;7.40;;;5.92;;
13222;SDS011;6676;45.192;5.722;2023-07-02T12:03:10;6.25;;;5.37;;
13222;SDS011;6676;45.192;5.722;2023-07-02T12:06:03;8.15;;;5.65;;
13222;SDS011;6676;45.192;5.722;2023-07-02T12:08:57;8.95;;;6.28;;
13222;SDS011;6676;45.192;5.722;2023-07-02T12:11:49;5.67;;;4.90;;
13222;SDS011;6676;45.192;5.722;2023-07-02T12:14:45;7.28;;;6.10;;
13222;SDS011;6676;45.192;5.722;2023-07-02T12:17:37;6.97;;;5.60;;
13222;SDS011;6676;45.192;5.722;2023-07-02T12:20:28;7.28;;;6.53;;
13222;SDS011;6676;45.192;5.722;2023-07-02T12:23:20;6.37;;;5.30;;
13222;SDS011;6676;45.192;5.722;2023-07-02T12:26:12;6.37;;;5.20;;
13222;SDS011;6676;45.192;5.722;2023-07-02T12:29:03;6.17;;;5.50;;
13222;SDS011;6676;45.192;5.722;2023-07-02T12:31:58;7.05;;;5.30;;
13222;SDS011;6676;45.192;5.722;2023-07-02T12:34:52;5.97;;;4.83;;
13222;SDS011;6676;45.192;5.722;2023-07-02T12:37:44;6.60;;;5.40;;
13222;SDS011;6676;45.192;5.722;2023-07-02T12:40:40;6.78;;;5.35;;
13222;SDS011;6676;45.192;5.722;2023-07-02T12:43:33;6.78;;;4.83;;
13222;SDS011;6676;45.192;5.722;2023-07-02T12:46:24;6.00;;;5.10;;
13222;SDS011;6676;45.192;5.722;2023-07-02T12:49:16;8.00;;;4.20;;
13222;SDS011;6676;45.192;5.722;2023-07-02T12:52:08;6.05;;;4.60;;
13222;SDS011;6676;45.192;5.722;2023-07-02T12:55:00;5.55;;;4.97;;
13222;SDS011;6676;45.192;5.722;2023-07-02T12:57:52;6.47;;;4.72;;
13222;SDS011;6676;45.192;5.722;2023-07-02T13:03:22;7.08;;;4.75;;
13222;SDS011;6676;45.192;5.722;2023-07-02T13:06:13;4.97;;;4.30;;
13222;SDS011;6676;45.192;5.722;2023-07-02T13:09:05;5.25;;;4.12;;
13222;SDS011;6676;45.192;5.722;2023-07-02T13:11:57;5.45;;;4.17;;
13222;SDS011;6676;45.192;5.722;2023-07-02T13:14:48;4.33;;;3.22;;
13222;SDS011;6676;45.192;5.722;2023-07-02T13:17:40;3.27;;;2.72;;
13222;SDS011;6676;45.192;5.722;2023-07-02T13:20:32;3.92;;;3.27;;
13222;SDS011;6676;45.192;5.722;2023-07-02T13:23:24;4.40;;;3.37;;
13222;SDS011;6676;45.192;5.722;2023-07-02T13:26:15;4.30;;;3.90;;
13222;SDS011;6676;45.192;5.722;2023-07-02T13:29:08;4.10;;;3.33;;
13222;SDS011;6676;45.192;5.722;2023-07-02T13:32:02;3.77;;;2.87;;
13222;SDS011;6676;45.192;5.722;2023-07-02T13:34:55;4.75;;;3.90;;
13222;SDS011;6676;45.192;5.722;2023-07-02T13:37:47;5.35;;;4.00;;
13222;SDS011;6676;45.192;5.722;2023-07-02T13:40:38;4.22;;;3.77;;
13222;SDS011;6676;45.192;5.722;2023-07-02T13:43:29;4.42;;;4.03;;
13222;SDS011;6676;45.192;5.722;2023-07-02T13:46:21;4.03;;;3.50;;
13222;SDS011;6676;45.192;5.722;2023-07-02T13:49:12;4.50;;;3.80;;
13222;SDS011;6676;45.192;5.722;2023-07-02T13:52:07;3.85;;;3.45;;
13222;SDS011;6676;45.192;5.722;2023-07-02T13:55:05;3.98;;;3.50;;
13222;SDS011;6676;45.192;5.722;2023-07-02T13:58:00;4.45;;;3.77;;
13222;SDS011;6676;45.192;5.722;2023-07-02T14:00:51;4.65;;;3.80;;
13222;SDS011;6676;45.192;5.722;2023-07-02T14:03:43;4.33;;;3.77;;
13222;SDS011;6676;45.192;5.722;2023-07-02T14:06:34;4.08;;;3.67;;
13222;SDS011;6676;45.192;5.722;2023-07-02T14:09:33;4.40;;;4.00;;
13222;SDS011;6676;45.192;5.722;2023-07-02T14:12:25;4.25;;;3.80;;
13222;SDS011;6676;45.192;5.722;2023-07-02T14:15:18;4.53;;;4.00;;
13222;SDS011;6676;45.192;5.722;2023-07-02T14:18:11;4.25;;;3.55;;
13222;SDS011;6676;45.192;5.722;2023-07-02T14:21:03;4.33;;;3.92;;
13222;SDS011;6676;45.192;5.722;2023-07-02T14:23:56;4.67;;;3.52;;
13222;SDS011;6676;45.192;5.722;2023-07-02T14:26:48;3.67;;;3.37;;
13222;SDS011;6676;45.192;5.722;2023-07-02T14:29:40;4.33;;;3.90;;
13222;SDS011;6676;45.192;5.722;2023-07-02T14:32:31;6.33;;;3.40;;
13222;SDS011;6676;45.192;5.722;2023-07-02T14:35:27;4.62;;;3.62;;
13222;SDS011;6676;45.192;5.722;2023-07-02T14:38:28;4.45;;;3.90;;
13222;SDS011;6676;45.192;5.722;2023-07-02T14:41:37;5.10;;;3.85;;
13222;SDS011;6676;45.192;5.722;2023-07-02T14:44:29;3.47;;;3.17;;
13222;SDS011;6676;45.192;5.722;2023-07-02T14:47:22;3.58;;;3.27;;
13222;SDS011;6676;45.192;5.722;2023-07-02T14:50:14;3.98;;;3.67;;
13222;SDS011;6676;45.192;5.722;2023-07-02T14:53:09;3.90;;;3.45;;
13222;SDS011;6676;45.192;5.722;2023-07-02T14:56:01;4.15;;;3.75;;
13222;SDS011;6676;45.192;5.722;2023-07-02T14:58:52;4.33;;;3.85;;
13222;SDS011;6676;45.192;5.722;2023-07-02T15:01:44;4.37;;;3.52;;
13222;SDS011;6676;45.192;5.722;2023-07-02T15:04:35;3.92;;;3.52;;
13222;SDS011;6676;45.192;5.722;2023-07-02T15:07:27;4.00;;;3.60;;
13222;SDS011;6676;45.192;5.722;2023-07-02T15:10:18;3.67;;;3.37;;
13222;SDS011;6676;45.192;5.722;2023-07-02T15:13:10;3.37;;;3.08;;
13222;SDS011;6676;45.192;5.722;2023-07-02T15:16:02;3.40;;;3.10;;
13222;SDS011;6676;45.192;5.722;2023-07-02T15:18:54;3.55;;;3.25;;
13222;SDS011;6676;45.192;5.722;2023-07-02T15:21:45;4.22;;;3.65;;
13222;SDS011;6676;45.192;5.722;2023-07-02T15:24:37;4.22;;;3.55;;
13222;SDS011;6676;45.192;5.722;2023-07-02T15:27:31;4.03;;;3.67;;
13222;SDS011;6676;45.192;5.722;2023-07-02T15:30:22;3.30;;;3.00;;
13222;SDS011;6676;45.192;5.722;2023-07-02T15:33:16;4.80;;;3.52;;
13222;SDS011;6676;45.192;5.722;2023-07-02T15:36:07;4.00;;;3.33;;
13222;SDS011;6676;45.192;5.722;2023-07-02T15:38:59;3.85;;;3.27;;
13222;SDS011;6676;45.192;5.722;2023-07-02T15:41:50;3.80;;;3.30;;
13222;SDS011;6676;45.192;5.722;2023-07-02T15:44:42;3.35;;;3.05;;
13222;SDS011;6676;45.192;5.722;2023-07-02T15:47:35;3.75;;;3.30;;
13222;SDS011;6676;45.192;5.722;2023-07-02T15:50:26;4.42;;;3.25;;
13222;SDS011;6676;45.192;5.722;2023-07-02T15:53:18;3.35;;;2.95;;
13222;SDS011;6676;45.192;5.722;2023-07-02T15:56:13;3.67;;;3.30;;
13222;SDS011;6676;45.192;5.722;2023-07-02T15:59:04;3.30;;;2.83;;
13222;SDS011;6676;45.192;5.722;2023-07-02T16:01:56;3.17;;;2.87;;
13222;SDS011;6676;45.192;5.722;2023-07-02T16:04:48;3.22;;;2.92;;
13222;SDS011;6676;45.192;5.722;2023-07-02T16:07:40;3.17;;;2.83;;
13222;SDS011;6676;45.192;5.722;2023-07-02T16:13:10;3.67;;;3.27;;
13222;SDS011;6676;45.192;5.722;2023-07-02T16:16:02;4.03;;;3.62;;
13222;SDS011;6676;45.192;5.722;2023-07-02T16:18:42;4.22;;;3.12;;
13222;SDS011;6676;45.192;5.722;2023-07-02T16:21:34;4.53;;;4.05;;
13222;SDS011;6676;45.192;5.722;2023-07-02T16:24:28;5.40;;;4.30;;
13222;SDS011;6676;45.192;5.722;2023-07-02T16:27:21;4.30;;;3.90;;
13222;SDS011;6676;45.192;5.722;2023-07-02T16:30:15;6.67;;;4.28;;
13222;SDS011;6676;45.192;5.722;2023-07-02T16:33:06;4.25;;;2.98;;
13222;SDS011;6676;45.192;5.722;2023-07-02T16:35:58;5.80;;;4.83;;
13222;SDS011;6676;45.192;5.722;2023-07-02T16:41:25;5.62;;;4.45;;
13222;SDS011;6676;45.192;5.722;2023-07-02T16:44:20;5.35;;;4.33;;
13222;SDS011;6676;45.192;5.722;2023-07-02T16:49:52;4.47;;;4.03;;
13222;SDS011;6676;45.192;5.722;2023-07-02T16:52:45;5.65;;;4.90;;
13222;SDS011;6676;45.192;5.722;2023-07-02T16:58:16;5.78;;;4.25;;
13222;SDS011;6676;45.192;5.722;2023-07-02T17:01:08;5.12;;;4.62;;
13222;SDS011;6676;45.192;5.722;2023-07-02T17:04:03;5.65;;;4.45;;
13222;SDS011;6676;45.192;5.722;2023-07-02T17:06:59;5.53;;;3.77;;
13222;SDS011;6676;45.192;5.722;2023-07-02T17:09:42;4.78;;;4.17;;
13222;SDS011;6676;45.192;5.722;2023-07-02T17:12:35;5.03;;;4.30;;
13222;SDS011;6676;45.192;5.722;2023-07-02T17:15:15;5.12;;;4.37;;
13222;SDS011;6676;45.192;5.722;2023-07-02T17:18:10;9.98;;;4.25;;
13222;SDS011;6676;45.192;5.722;2023-07-02T17:21:01;4.60;;;3.87;;
13222;SDS011;6676;45.192;5.722;2023-07-02T17:23:53;5.80;;;3.75;;
13222;SDS011;6676;45.192;5.722;2023-07-02T17:26:33;4.83;;;3.75;;
13222;SDS011;6676;45.192;5.722;2023-07-02T17:29:25;4.70;;;3.75;;
13222;SDS011;6676;45.192;5.722;2023-07-02T17:32:19;4.20;;;3.55;;
13222;SDS011;6676;45.192;5.722;2023-07-02T17:37:51;4.45;;;3.17;;
13222;SDS011;6676;45.192;5.722;2023-07-02T17:43:21;5.87;;;3.33;;
13222;SDS011;6676;45.192;5.722;2023-07-02T17:46:21;3.80;;;2.85;;
13222;SDS011;6676;45.192;5.722;2023-07-02T17:49:16;2.90;;;2.60;;
13222;SDS011;6676;45.192;5.722;2023-07-02T17:52:09;2.62;;;2.33;;
13222;SDS011;6676;45.192;5.722;2023-07-02T17:54:51;2.50;;;2.20;;
13222;SDS011;6676;45.192;5.722;2023-07-02T18:00:22;2.40;;;2.20;;
13222;SDS011;6676;45.192;5.722;2023-07-02T18:03:16;2.77;;;2.33;;
13222;SDS011;6676;45.192;5.722;2023-07-02T18:06:11;2.67;;;2.33;;
13222;SDS011;6676;45.192;5.722;2023-07-02T18:09:01;2.40;;;1.82;;
13222;SDS011;6676;45.192;5.722;2023-07-02T18:11:53;4.67;;;2.75;;
13222;SDS011;6676;45.192;5.722;2023-07-02T18:14:49;3.67;;;2.80;;
13222;SDS011;6676;45.192;5.722;2023-07-02T18:20:21;4.05;;;3.17;;
13222;SDS011;6676;45.192;5.722;2023-07-02T18:23:12;4.70;;;3.60;;
13222;SDS011;6676;45.192;5.722;2023-07-02T18:26:04;3.62;;;3.27;;
13222;SDS011;6676;45.192;5.722;2023-07-02T18:28:44;3.67;;;3.12;;
13222;SDS011;6676;45.192;5.722;2023-07-02T18:34:15;3.55;;;3.02;;